Alpine Haven, Vermont
Current Conditions -  °F | °C
As of 2:35 PM on Friday 28 Nov 2014 (Local Time) from KEFK Reporting Station
Light Snow Light Snow  
Wind Chill: 12°   Ceiling: 3100
Heat Index: 22°   Visibility: 7mi
Dew Point: 15°   Wind: 9mph
Humidity: 75%   Direction: 320°NW
Pressure: 30.05"   Gusts: NA
Location:  44.8557°N, 72.6016°W
Report Text: KEFK 281935Z AUTO 32008KT 7SM -SN SCT021 BKN031 OVC038 M06/M09 A3005 RMK AO2 T10561094
Loading
Personal Weather Stations






























Interactive Weather Map New forecast layout! Learn more

10-Day Weather Forecast

Advertisements
Track Severe Weather on mobile